createdAt,value
2024-01-05T00:00:26.591Z,99478.19
2024-01-05T00:04:28.268Z,99478.97
2024-01-05T00:08:29.876Z,99469.63
2024-01-05T00:12:31.662Z,99469.63
2024-01-05T00:16:33.306Z,99461.97
2024-01-05T00:20:34.909Z,99464.53
2024-01-05T00:24:38.115Z,99465.44
2024-01-05T00:28:39.747Z,99454.25
2024-01-05T00:32:41.585Z,99446.53
2024-01-05T00:36:43.694Z,99453.19
2024-01-05T00:40:45.401Z,99457.31
2024-01-05T00:44:46.997Z,99454.63
2024-01-05T00:48:48.725Z,99452.88
2024-01-05T00:52:50.401Z,99437.66
2024-01-05T00:56:52.517Z,99437.56
2024-01-05T01:00:54.402Z,99440.81
2024-01-05T01:04:56.136Z,99439.88
2024-01-05T01:08:57.751Z,99442.44
2024-01-05T01:13:02.191Z,99436.56
2024-01-05T01:17:04.203Z,99434.00
2024-01-05T01:21:05.887Z,99423.66
2024-01-05T01:25:07.829Z,99419.38
2024-01-05T01:29:09.617Z,99404.78
2024-01-05T01:33:11.492Z,99398.03
2024-01-05T01:37:13.174Z,99406.66
2024-01-05T01:41:15.234Z,99399.88
2024-01-05T01:45:16.946Z,99387.13
2024-01-05T01:49:19.036Z,99381.97
2024-01-05T01:53:22.901Z,99386.94
2024-01-05T01:57:25.292Z,99383.53
2024-01-05T02:01:28.172Z,99379.22
2024-01-05T02:05:29.795Z,99391.09
2024-01-05T02:09:31.945Z,99384.97
2024-01-05T02:13:35.618Z,99383.16
2024-01-05T02:17:37.369Z,99378.06
2024-01-05T02:21:43.243Z,99385.50
2024-01-05T02:25:44.913Z,99371.00
2024-01-05T02:29:46.708Z,99370.78
2024-01-05T02:33:48.427Z,99365.50
2024-01-05T02:37:50.135Z,99349.94
2024-01-05T02:41:51.786Z,99342.06
2024-01-05T02:45:53.437Z,99338.03
2024-01-05T02:49:55.139Z,99346.84
2024-01-05T02:53:56.777Z,99334.47
2024-01-05T02:57:58.378Z,99329.78
2024-01-05T03:02:01.336Z,99325.78
2024-01-05T03:06:03.054Z,99322.63
2024-01-05T03:10:05.114Z,99315.00
2024-01-05T03:14:06.695Z,99314.19
2024-01-05T03:18:08.394Z,99299.78
2024-01-05T03:22:09.984Z,99288.03
2024-01-05T03:26:11.690Z,99276.31
2024-01-05T03:30:13.581Z,99269.63
2024-01-05T03:34:16.416Z,99274.03
2024-01-05T03:38:18.174Z,99271.31
2024-01-05T03:42:19.931Z,99254.19
2024-01-05T03:46:21.779Z,99260.91
2024-01-05T03:50:23.388Z,99257.47
2024-01-05T03:54:25.062Z,99255.78
2024-01-05T03:58:26.745Z,99250.63
2024-01-05T04:02:28.454Z,99251.53
2024-01-05T04:06:30.212Z,99242.13
2024-01-05T04:10:31.869Z,99236.03
2024-01-05T04:14:36.463Z,99227.59
2024-01-05T04:18:38.180Z,99237.81
2024-01-05T04:22:39.945Z,99230.09
2024-01-05T04:26:41.854Z,99221.59
2024-01-05T04:30:43.883Z,99227.59
2024-01-05T04:34:45.586Z,99228.47
2024-01-05T04:38:47.702Z,99224.28
2024-01-05T04:42:49.269Z,99231.94
2024-01-05T04:46:50.851Z,99222.63
2024-01-05T04:50:52.734Z,99221.03
2024-01-05T04:54:54.368Z,99224.38
2024-01-05T04:58:55.984Z,99227.59
2024-01-05T05:02:57.623Z,99222.50
2024-01-05T05:06:59.385Z,99232.81
2024-01-05T05:11:01.082Z,99220.06
2024-01-05T05:15:02.833Z,99225.16
2024-01-05T05:19:05.374Z,99232.00
2024-01-05T05:23:07.152Z,99227.06
2024-01-05T05:27:08.818Z,99227.13
2024-01-05T05:31:11.313Z,99229.00
2024-01-05T05:35:13.125Z,99224.84
2024-01-05T05:39:15.623Z,99221.53
2024-01-05T05:43:17.399Z,99228.47
2024-01-05T05:47:18.996Z,99237.13
2024-01-05T05:51:20.551Z,99234.63
2024-01-05T05:55:22.174Z,99246.59
2024-01-05T05:59:24.439Z,99243.16
2024-01-05T06:03:26.280Z,99246.63
2024-01-05T06:07:27.978Z,99233.97
2024-01-05T06:11:29.662Z,99247.69
2024-01-05T06:15:31.273Z,99239.13
2024-01-05T06:19:33.046Z,99245.97
2024-01-05T06:23:34.834Z,99244.34
2024-01-05T06:27:39.295Z,99249.44
2024-01-05T06:31:42.294Z,99252.88
2024-01-05T06:35:44.138Z,99257.13
2024-01-05T06:39:45.847Z,99255.25
2024-01-05T06:43:47.641Z,99259.44
2024-01-05T06:47:49.323Z,99262.00
2024-01-05T06:51:51.064Z,99251.94
2024-01-05T06:55:52.802Z,99248.56
2024-01-05T06:59:54.501Z,99248.53
2024-01-05T07:03:56.210Z,99253.47
2024-01-05T07:07:57.991Z,99257.66
2024-01-05T07:12:00.804Z,99264.44
2024-01-05T07:16:02.490Z,99273.03
2024-01-05T07:20:04.399Z,99274.75
2024-01-05T07:24:06.192Z,99271.41
2024-01-05T07:28:07.763Z,99257.81
2024-01-05T07:32:09.338Z,99256.34
2024-01-05T07:36:10.994Z,99255.34
2024-01-05T07:40:13.535Z,99262.88
2024-01-05T07:44:15.128Z,99260.44
2024-01-05T07:48:16.960Z,99263.91
2024-01-05T07:52:18.728Z,99257.09
2024-01-05T07:56:20.333Z,99247.78
2024-01-05T08:00:22.176Z,99237.56
2024-01-05T08:04:23.992Z,99245.28
2024-01-05T08:08:25.821Z,99240.97
2024-01-05T08:12:27.497Z,99225.50
2024-01-05T08:16:29.162Z,99227.19
2024-01-05T08:20:32.983Z,99237.75
2024-01-05T08:24:36.065Z,99242.16
2024-01-05T08:28:37.683Z,99231.06
2024-01-05T08:32:40.018Z,99226.59
2024-01-05T08:36:41.915Z,99220.66
2024-01-05T08:40:43.704Z,99214.16
2024-01-05T08:44:45.292Z,99208.31
2024-01-05T08:48:47.117Z,99209.97
2024-01-05T08:52:49.902Z,99216.91
2024-01-05T08:56:51.717Z,99235.91
2024-01-05T09:00:53.413Z,99221.66
2024-01-05T09:04:55.812Z,99223.50
2024-01-05T09:08:57.535Z,99233.69
2024-01-05T09:12:59.587Z,99225.06
2024-01-05T09:17:01.982Z,99241.97
2024-01-05T09:21:04.093Z,99252.03
2024-01-05T09:25:07.278Z,99260.97
2024-01-05T09:29:08.904Z,99259.00
2024-01-05T09:33:10.919Z,99261.56
2024-01-05T09:37:12.648Z,99263.31
2024-01-05T09:41:14.572Z,99261.88
2024-01-05T09:45:17.007Z,99258.69
2024-01-05T09:49:19.479Z,99267.19
2024-01-05T09:53:21.216Z,99268.97
2024-01-05T09:57:23.475Z,99261.38
2024-01-05T10:01:27.208Z,99259.88
2024-01-05T10:05:31.509Z,99256.03
2024-01-05T10:09:33.290Z,99264.22
2024-01-05T10:13:35.046Z,99264.59
2024-01-05T10:17:37.243Z,99262.38
2024-01-05T10:21:40.371Z,99267.84
2024-01-05T10:25:42.046Z,99277.66
2024-01-05T10:29:45.429Z,99277.03
2024-01-05T10:33:56.103Z,99282.19
2024-01-05T10:38:09.973Z,99277.97
2024-01-05T10:42:22.945Z,99276.25
2024-01-05T10:46:26.117Z,99270.28
2024-01-05T10:50:27.793Z,99270.47
2024-01-05T10:54:31.916Z,99257.00
2024-01-05T10:58:33.875Z,99252.06
2024-01-05T11:02:41.753Z,99244.56
2024-01-05T11:06:43.806Z,99235.22
2024-01-05T11:11:03.718Z,99225.97
2024-01-05T11:15:15.141Z,99221.81
2024-01-05T11:19:46.542Z,99220.97
2024-01-05T11:23:50.553Z,99213.28
2024-01-05T11:27:52.251Z,99208.22
2024-01-05T11:31:54.384Z,99203.09
2024-01-05T11:35:56.239Z,99192.03
2024-01-05T11:40:01.732Z,99193.00
2024-01-05T11:44:03.669Z,99185.38
2024-01-05T11:48:05.959Z,99181.22
2024-01-05T11:52:08.891Z,99181.25
2024-01-05T11:56:12.444Z,99178.63
2024-01-05T12:00:14.643Z,99176.88
2024-01-05T12:04:16.319Z,99175.97
2024-01-05T12:08:18.516Z,99175.94
2024-01-05T12:12:20.313Z,99175.16
2024-01-05T12:16:23.182Z,99174.31
2024-01-05T12:20:25.052Z,99172.59
2024-01-05T12:24:26.746Z,99178.53
2024-01-05T12:28:39.155Z,99178.50
2024-01-05T12:32:41.773Z,99188.78
2024-01-05T12:36:44.370Z,99176.91
2024-01-05T12:40:46.142Z,99181.09
2024-01-05T12:44:47.771Z,99177.84
2024-01-05T12:48:49.836Z,99176.16
2024-01-05T12:52:51.740Z,99165.13
2024-01-05T12:56:55.297Z,99169.44
2024-01-05T13:01:00.352Z,99159.94
2024-01-05T13:05:02.089Z,99165.88
2024-01-05T13:09:03.977Z,99163.31
2024-01-05T13:13:05.663Z,99153.06
2024-01-05T13:17:07.738Z,99149.59
2024-01-05T13:21:09.537Z,99154.78
2024-01-05T13:25:12.909Z,99162.50
2024-01-05T13:29:14.511Z,99168.59
2024-01-05T13:33:16.304Z,99168.69
2024-01-05T13:37:18.024Z,99168.81
2024-01-05T13:41:19.728Z,99163.69
2024-01-05T13:45:21.567Z,99161.94
2024-01-05T13:49:27.005Z,99166.13
2024-01-05T13:53:28.945Z,99164.28
2024-01-05T13:57:30.584Z,99162.50
2024-01-05T14:01:32.254Z,99165.84
2024-01-05T14:05:33.986Z,99171.66
2024-01-05T14:09:35.753Z,99172.41
2024-01-05T14:13:37.397Z,99169.69
2024-01-05T14:17:39.055Z,99179.78
2024-01-05T14:21:40.783Z,99182.22
2024-01-05T14:25:42.752Z,99197.38
2024-01-05T14:29:44.445Z,99194.53
2024-01-05T14:33:46.273Z,99189.28
2024-01-05T14:37:47.920Z,99193.38
2024-01-05T14:41:49.666Z,99194.91
2024-01-05T14:45:52.161Z,99204.13
2024-01-05T14:49:53.832Z,99202.34
2024-01-05T14:53:55.562Z,99201.28
2024-01-05T14:57:57.215Z,99206.25
2024-01-05T15:02:00.118Z,99216.31
2024-01-05T15:06:01.934Z,99215.31
2024-01-05T15:10:04.002Z,99216.09
2024-01-05T15:14:05.824Z,99216.69
2024-01-05T15:18:07.659Z,99217.44
2024-01-05T15:22:09.499Z,99221.63
2024-01-05T15:26:11.135Z,99213.84
2024-01-05T15:30:13.582Z,99223.94
2024-01-05T15:34:15.461Z,99227.22
2024-01-05T15:38:17.484Z,99236.47
2024-01-05T15:42:19.376Z,99229.47
2024-01-05T15:46:21.994Z,99236.16
2024-01-05T15:50:24.906Z,99232.56
2024-01-05T15:54:27.465Z,99229.84
2024-01-05T15:58:29.210Z,99236.50
2024-01-05T16:02:30.857Z,99247.44
2024-01-05T16:06:32.697Z,99248.09
2024-01-05T16:10:34.338Z,99263.31
2024-01-05T16:14:46.985Z,99261.50
2024-01-05T16:18:48.732Z,99263.91
2024-01-05T16:22:50.468Z,99277.47
2024-01-05T16:26:52.130Z,99275.66
2024-01-05T16:30:53.872Z,99284.94
2024-01-05T16:34:55.590Z,99278.06
2024-01-05T16:38:57.228Z,99273.72
2024-01-05T16:42:58.795Z,99284.63
2024-01-05T16:47:00.413Z,99281.94
2024-01-05T16:51:02.126Z,99288.66
2024-01-05T16:55:05.005Z,99290.31
2024-01-05T16:59:06.803Z,99283.34
2024-01-05T17:03:10.461Z,99288.44
2024-01-05T17:07:12.206Z,99290.00
2024-01-05T17:11:13.969Z,99283.91
2024-01-05T17:15:15.783Z,99295.72
2024-01-05T17:19:17.662Z,99288.63
2024-01-05T17:23:19.458Z,99285.84
2024-01-05T17:27:21.135Z,99295.78
2024-01-05T17:31:22.867Z,99303.16
2024-01-05T17:35:24.486Z,99300.34
2024-01-05T17:39:26.045Z,99304.44
2024-01-05T17:43:27.753Z,99322.28
2024-01-05T17:47:29.322Z,99323.28
2024-01-05T17:51:40.690Z,99327.59
2024-01-05T17:55:42.386Z,99328.47
2024-01-05T17:59:44.056Z,99339.72
2024-01-05T18:03:45.914Z,99335.50
2024-01-05T18:07:49.040Z,99341.44
2024-01-05T18:11:50.947Z,99338.88
2024-01-05T18:15:52.577Z,99341.44
2024-01-05T18:19:56.352Z,99340.50
2024-01-05T18:24:01.447Z,99349.78
2024-01-05T18:28:07.151Z,99348.94
2024-01-05T18:32:09.656Z,99354.88
2024-01-05T18:36:11.479Z,99363.44
2024-01-05T18:40:13.382Z,99359.13
2024-01-05T18:44:15.597Z,99359.97
2024-01-05T18:48:17.729Z,99359.97
2024-01-05T18:52:19.404Z,99357.31
2024-01-05T18:56:21.183Z,99356.47
2024-01-05T19:00:22.920Z,99359.78
2024-01-05T19:04:24.787Z,99358.78
2024-01-05T19:08:26.608Z,99371.44
2024-01-05T19:12:28.371Z,99363.69
2024-01-05T19:16:30.019Z,99351.72
2024-01-05T19:20:32.940Z,99363.59
2024-01-05T19:24:34.761Z,99363.63
2024-01-05T19:28:36.473Z,99370.50
2024-01-05T19:32:38.123Z,99380.69
2024-01-05T19:36:44.659Z,99384.06
2024-01-05T19:40:46.501Z,99390.78
2024-01-05T19:44:48.539Z,99388.16
2024-01-05T19:48:50.204Z,99390.63
2024-01-05T19:52:51.839Z,99387.97
2024-01-05T19:56:55.365Z,99398.09
2024-01-05T20:00:57.069Z,99401.47
2024-01-05T20:05:00.470Z,99401.47
2024-01-05T20:09:02.106Z,99405.53
2024-01-05T20:13:04.552Z,99410.59
2024-01-05T20:17:06.285Z,99409.75
2024-01-05T20:21:16.998Z,99406.28
2024-01-05T20:25:18.841Z,99407.91
2024-01-05T20:29:21.343Z,99414.63
2024-01-05T20:33:25.333Z,99400.94
2024-01-05T20:37:27.095Z,99406.84
2024-01-05T20:41:28.813Z,99408.56
2024-01-05T20:45:30.689Z,99410.25
2024-01-05T20:49:32.521Z,99406.00
2024-01-05T20:53:34.282Z,99407.66
2024-01-05T20:57:36.051Z,99409.31
2024-01-05T21:01:41.684Z,99407.44
2024-01-05T21:05:43.437Z,99413.31
2024-01-05T21:09:45.276Z,99407.34
2024-01-05T21:13:46.994Z,99409.06
2024-01-05T21:17:49.524Z,99416.78
2024-01-05T21:21:53.318Z,99411.69
2024-01-05T21:25:55.010Z,99413.38
2024-01-05T21:29:56.805Z,99415.00
2024-01-05T21:33:58.605Z,99425.25
2024-01-05T21:38:01.444Z,99421.88
2024-01-05T21:42:03.440Z,99418.41
2024-01-05T21:46:05.266Z,99413.22
2024-01-05T21:50:07.566Z,99421.59
2024-01-05T21:54:09.250Z,99425.75
2024-01-05T21:58:13.676Z,99423.13
2024-01-05T22:02:15.989Z,99427.31
2024-01-05T22:06:17.853Z,99423.00
2024-01-05T22:10:19.675Z,99431.31
2024-01-05T22:14:21.399Z,99422.66
2024-01-05T22:18:23.173Z,99427.75
2024-01-05T22:22:25.003Z,99426.03
2024-01-05T22:26:34.089Z,99422.56
2024-01-05T22:30:35.907Z,99420.78
2024-01-05T22:34:38.014Z,99416.50
2024-01-05T22:38:40.546Z,99421.53
2024-01-05T22:42:42.339Z,99420.66
2024-01-05T22:46:44.178Z,99416.34
2024-01-05T22:50:47.765Z,99418.75
2024-01-05T22:54:49.412Z,99417.06
2024-01-05T22:58:51.060Z,99413.56
2024-01-05T23:02:52.728Z,99410.94
2024-01-05T23:06:56.267Z,99421.06
2024-01-05T23:10:58.341Z,99422.75
2024-01-05T23:15:00.073Z,99410.84
2024-01-05T23:19:01.804Z,99421.03
2024-01-05T23:23:04.017Z,99421.03
2024-01-05T23:27:05.671Z,99415.88
2024-01-05T23:31:09.465Z,99423.47
2024-01-05T23:35:11.770Z,99415.72
2024-01-05T23:39:13.501Z,99422.50
2024-01-05T23:43:15.204Z,99425.91
2024-01-05T23:47:17.060Z,99420.72
2024-01-05T23:51:18.770Z,99428.22
2024-01-05T23:55:20.428Z,99425.56
2024-01-05T23:59:21.984Z,99420.44
